METAR Data
IDs: Format: Raw Decoded Include TAF

Data at: 2208 UTC 22 Sep 2020

KEAU 222156Z 21010KT 10SM CLR 27/15 A3001 RMK AO2 SLP160 T02720150
KEAU 222056Z 20007KT 10SM CLR 27/15 A3003 RMK AO2 SLP164 T02670150 56021
KEAU 221956Z 20006KT 10SM CLR 27/14 A3004 RMK AO2 SLP169 T02720144
KEAU 221856Z 22005KT 10SM CLR 26/15 A3006 RMK AO2 SLP177 T02610150
KEAU 221756Z VRB03KT 10SM CLR 24/14 A3009 RMK AO2 SLP186 T02440144 10250 20111 58015
KEAU 221656Z 00000KT 10SM CLR 23/14 A3011 RMK AO2 SLP192 T02280144
KEAU 221556Z 26004KT 10SM CLR 21/14 A3012 RMK AO2 SLP199 T02110139
KEAU 221456Z 21004KT 10SM CLR 19/14 A3013 RMK AO2 SLP202 T01890139 51004
KEAU 221356Z 00000KT 10SM FEW110 17/13 A3013 RMK AO2 SLP202 T01670133
KEAU 221256Z 00000KT 10SM CLR 13/12 A3013 RMK AO2 SLP202 T01330117
KEAU 221217Z 00000KT 10SM CLR 12/11 A3012 RMK AO2 T01170106
KEAU 221210Z COR 00000KT 10SM CLR 12/11 A3012 RMK AO2 T01220111
KEAU 221156Z 00000KT 10SM CLR 12/11 A3012 RMK AO2 SLP200 T01170111 10161 20117 53003
KEAU 221114Z 00000KT 10SM CLR 12/11 A3011 RMK AO2 T01220106
KEAU 221056Z COR 00000KT 10SM CLR 13/12 A3011 RMK AO2 SLP195 T01280117
KEAU 221044Z COR 00000KT 10SM CLR 13/12 A3011 RMK AO2 VIS 3/4V5 T01280117
KEAU 220956Z AUTO 00000KT 10SM CLR 14/12 A3011 RMK AO2 SLP195 T01390122
KEAU 220856Z AUTO 19003KT 10SM CLR 16/12 A3011 RMK AO2 SLP193 T01560122 56002
KEAU 220756Z AUTO 18004KT 10SM CLR 16/12 A3011 RMK AO2 SLP194 T01610122
KEAU 220656Z AUTO 20004KT 10SM CLR 14/12 A3011 RMK AO2 SLP195 T01440117
KEAU 220556Z AUTO 00000KT 10SM CLR 16/12 A3012 RMK AO2 SLP195 T01610122 10217 20161 402560133 50002
KEAU 220456Z AUTO 18005KT 10SM CLR 17/12 A3012 RMK AO2 SLP198 T01670122
KEAU 220356Z AUTO 18004KT 10SM CLR 18/12 A3012 RMK AO2 SLP196 T01780122
KEAU 220256Z AUTO 17008KT 10SM CLR 18/13 A3011 RMK AO2 SLP195 T01830128 50007
KEAU 220156Z AUTO 17009KT 10SM CLR 19/13 A3011 RMK AO2 SLP197 T01890128
KEAU 220056Z 17008KT 10SM CLR 20/13 A3010 RMK AO2 SLP193 T02000133
KEAU 212356Z 18009KT 10SM CLR 22/13 A3009 RMK AO2 SLP189 T02170133 10256 20217 55001
KEAU 212256Z 19012KT 10SM BKN110 24/13 A3008 RMK AO2 LTG DSNT SE SLP185 T02390133
KEAU 212156Z 20012G21KT 10SM SCT110 24/12 A3009 RMK AO2 LTG DSNT N AND NE SLP186 T02440122
KEAU 212056Z 20013KT 10SM BKN110 24/12 A3009 RMK AO2 LTG DSNT N AND NW SLP188 T02440122 56019
KEAU 211956Z 21014G22KT 10SM BKN110 25/11 A3010 RMK AO2 SLP191 T02500111
KEAU 211856Z 19010KT 10SM CLR 24/12 A3012 RMK AO2 SLP197 T02440117
KEAU 211756Z 18011G20KT 10SM CLR 24/11 A3015 RMK AO2 SLP207 T02440111 10244 20139 56018
KEAU 211656Z 19013KT 10SM CLR 22/10 A3016 RMK AO2 SLP212 T02170100
KEAU 211556Z 20009KT 10SM CLR 19/09 A3019 RMK AO2 SLP221 T01940094
KEAU 211456Z 19010KT 10SM CLR 18/08 A3020 RMK AO2 SLP227 T01830083 58000
KEAU 211356Z 18009KT 10SM CLR 16/07 A3020 RMK AO2 SLP228 T01560067
KEAU 211256Z 18008KT 10SM CLR 14/06 A3021 RMK AO2 SLP229 T01390061
KEAU 211156Z 18009KT 10SM CLR 14/06 A3020 RMK AO2 SLP228 T01390056 10161 20133 56004
KEAU 211056Z 16006KT 10SM CLR 14/06 A3020 RMK AO2 SLP228 T01390056